Time,TemperatureF,DewpointF,PressureIn,WindDirection,WindDirectionDegrees,WindSpeedMPH,WindSpeedGustMPH,Humidity,HourlyPrecipIn,Conditions,Clouds,dailyrainin,SoftwareType,DateUTC
2013-10-04 00:00:00,25.6,21.7,29.79,ESE,115,1.0,1.0,85,0.00,,,0.00,Wunderground v.1.15,2013-10-04 08:00:00,
2013-10-04 00:05:00,25.4,21.5,29.79,ESE,115,1.0,1.0,85,0.00,,,0.00,Wunderground v.1.15,2013-10-04 08:05:00,
2013-10-04 00:15:00,25.1,21.2,29.79,ESE,115,0.0,1.0,85,0.00,,,0.00,Wunderground v.1.15,2013-10-04 08:15:00,
2013-10-04 00:25:00,24.8,20.7,29.79,ESE,115,0.0,0.0,84,0.00,,,0.00,Wunderground v.1.15,2013-10-04 08:25:00,
2013-10-04 00:30:00,-999.9,-99.9,29.80,North,32767,-999.0,0.0,255,-99.99,,,0.00,Wunderground v.1.15,2013-10-04 08:30:00,
2013-10-04 00:40:00,-999.9,-99.9,29.80,North,32767,-999.0,0.0,255,-99.99,,,0.00,Wunderground v.1.15,2013-10-04 08:40:00,
2013-10-04 00:45:00,-999.9,-99.9,29.80,North,32767,-999.0,0.0,255,-99.99,,,0.00,Wunderground v.1.15,2013-10-04 08:45:00,
2013-10-04 00:55:00,-999.9,-99.9,29.80,North,32767,-999.0,0.0,255,-99.99,,,0.00,Wunderground v.1.15,2013-10-04 08:55:00,
2013-10-04 01:05:00,23.5,21.0,29.80,ESE,115,0.0,0.0,90,0.00,,,0.00,Wunderground v.1.15,2013-10-04 09:05:00,
2013-10-04 01:10:00,24.7,22.2,29.80,ESE,115,0.0,0.0,90,0.00,,,0.00,Wunderground v.1.15,2013-10-04 09:10:00,
2013-10-04 01:15:00,25.1,22.0,29.80,ESE,115,0.0,0.0,88,0.00,,,0.00,Wunderground v.1.15,2013-10-04 09:15:00,
2013-10-04 01:25:00,23.9,20.6,29.80,ESE,115,0.0,0.0,87,0.00,,,0.00,Wunderground v.1.15,2013-10-04 09:25:00,
2013-10-04 01:30:00,23.5,20.2,29.80,ESE,115,0.0,0.0,87,0.00,,,0.00,Wunderground v.1.15,2013-10-04 09:30:00,
2013-10-04 01:35:00,23.2,19.9,29.80,ESE,115,0.0,0.0,87,0.00,,,0.00,Wunderground v.1.15,2013-10-04 09:35:00,
2013-10-04 01:45:00,23.0,20.5,29.80,ESE,115,0.0,0.0,90,0.00,,,0.00,Wunderground v.1.15,2013-10-04 09:45:00,
2013-10-04 01:50:00,23.0,20.5,29.80,ESE,115,0.0,0.0,90,0.00,,,0.00,Wunderground v.1.15,2013-10-04 09:50:00,
2013-10-04 02:00:00,22.4,19.9,29.81,ESE,115,0.0,0.0,90,0.00,,,0.00,Wunderground v.1.15,2013-10-04 10:00:00,
2013-10-04 02:05:00,21.8,19.3,29.81,ESE,115,0.0,0.0,90,0.00,,,0.00,Wunderground v.1.15,2013-10-04 10:05:00,
2013-10-04 02:15:00,20.5,18.0,29.82,ESE,115,0.0,0.0,90,0.00,,,0.00,Wunderground v.1.15,2013-10-04 10:15:00,
2013-10-04 02:20:00,20.5,18.0,29.82,ESE,115,0.0,0.0,90,0.00,,,0.00,Wunderground v.1.15,2013-10-04 10:20:00,
2013-10-04 02:25:00,21.1,19.1,29.82,ESE,115,0.0,0.0,92,0.00,,,0.00,Wunderground v.1.15,2013-10-04 10:25:00,
2013-10-04 02:35:00,20.6,18.6,29.82,ESE,115,0.0,0.0,92,0.00,,,0.00,Wunderground v.1.15,2013-10-04 10:35:00,
2013-10-04 02:40:00,20.0,18.1,29.82,ESE,115,0.0,0.0,92,0.00,,,0.00,Wunderground v.1.15,2013-10-04 10:40:00,
2013-10-04 02:50:00,19.7,17.8,29.82,ESE,115,0.0,0.0,92,0.00,,,0.00,Wunderground v.1.15,2013-10-04 10:50:00,
2013-10-04 02:55:00,19.7,17.8,29.82,ESE,115,0.0,0.0,92,0.00,,,0.00,Wunderground v.1.15,2013-10-04 10:55:00,
2013-10-04 03:00:00,20.2,18.5,29.82,ESE,115,0.0,0.0,93,0.00,,,0.00,Wunderground v.1.15,2013-10-04 11:00:00,
2013-10-04 03:10:00,19.9,18.2,29.82,ESE,115,0.0,0.0,93,0.00,,,0.00,Wunderground v.1.15,2013-10-04 11:10:00,
2013-10-04 03:15:00,19.7,18.0,29.82,ESE,115,0.0,1.0,93,0.00,,,0.00,Wunderground v.1.15,2013-10-04 11:15:00,
2013-10-04 03:25:00,19.5,17.8,29.82,ESE,115,0.0,0.0,93,0.00,,,0.00,Wunderground v.1.15,2013-10-04 11:25:00,
2013-10-04 03:30:00,-999.9,-99.9,29.82,North,32767,-999.0,0.0,255,-99.99,,,0.00,Wunderground v.1.15,2013-10-04 11:30:00,
2013-10-04 03:40:00,-999.9,-99.9,29.82,North,32767,-999.0,0.0,255,-99.99,,,0.00,Wunderground v.1.15,2013-10-04 11:40:00,
2013-10-04 03:45:00,-999.9,-99.9,29.82,North,32767,-999.0,0.0,255,-99.99,,,0.00,Wunderground v.1.15,2013-10-04 11:45:00,
2013-10-04 03:55:00,-999.9,-99.9,29.82,North,32767,-999.0,0.0,255,-99.99,,,0.00,Wunderground v.1.15,2013-10-04 11:55:00,
2013-10-04 04:05:00,18.4,16.5,29.82,ESE,115,0.0,0.0,92,0.00,,,0.00,Wunderground v.1.15,2013-10-04 12:05:00,
2013-10-04 04:10:00,18.4,16.5,29.82,ESE,115,0.0,0.0,92,0.00,,,0.00,Wunderground v.1.15,2013-10-04 12:10:00,
2013-10-04 04:20:00,18.6,16.9,29.82,ESE,115,0.0,0.0,93,0.00,,,0.00,Wunderground v.1.15,2013-10-04 12:20:00,
2013-10-04 04:25:00,18.6,16.9,29.82,ESE,115,0.0,0.0,93,0.00,,,0.00,Wunderground v.1.15,2013-10-04 12:25:00,
2013-10-04 04:30:00,17.3,15.4,29.82,ESE,115,1.0,2.0,92,0.00,,,0.00,Wunderground v.1.15,2013-10-04 12:30:00,
2013-10-04 04:40:00,17.5,15.6,29.82,ESE,115,0.0,3.0,92,0.00,,,0.00,Wunderground v.1.15,2013-10-04 12:40:00,
2013-10-04 04:50:00,17.5,15.6,29.82,ESE,111,1.0,1.0,92,0.00,,,0.00,Wunderground v.1.15,2013-10-04 12:50:00,
2013-10-04 05:00:00,17.2,15.3,29.82,ESE,111,0.0,0.0,92,0.00,,,0.00,Wunderground v.1.15,2013-10-04 13:00:00,
2013-10-04 05:10:00,17.0,15.1,29.82,ESE,111,1.0,1.0,92,0.00,,,0.00,Wunderground v.1.15,2013-10-04 13:10:00,
2013-10-04 05:20:00,15.9,13.5,29.82,ESE,111,0.0,0.0,90,0.00,,,0.00,Wunderground v.1.15,2013-10-04 13:20:00,
2013-10-04 05:30:00,15.7,13.3,29.82,ESE,111,0.0,0.0,90,0.00,,,0.00,Wunderground v.1.15,2013-10-04 13:30:00,
2013-10-04 05:35:00,15.6,13.2,29.82,ESE,111,0.0,0.0,90,0.00,,,0.00,Wunderground v.1.15,2013-10-04 13:35:00,
2013-10-04 05:45:00,15.9,13.7,29.81,ESE,111,0.0,0.0,91,0.00,,,0.00,Wunderground v.1.15,2013-10-04 13:45:00,
2013-10-04 05:55:00,15.7,13.5,29.81,ESE,111,0.0,0.0,91,0.00,,,0.00,Wunderground v.1.15,2013-10-04 13:55:00,
2013-10-04 06:05:00,15.9,13.7,29.82,ESE,111,0.0,0.0,91,0.00,,,0.00,Wunderground v.1.15,2013-10-04 14:05:00,
2013-10-04 06:10:00,15.9,13.7,29.82,ESE,111,0.0,0.0,91,0.00,,,0.00,Wunderground v.1.15,2013-10-04 14:10:00,
2013-10-04 06:15:00,15.7,13.3,29.82,ESE,111,0.0,0.0,90,0.00,,,0.00,Wunderground v.1.15,2013-10-04 14:15:00,
2013-10-04 06:25:00,15.4,13.0,29.82,ESE,111,0.0,0.0,90,0.00,,,0.00,Wunderground v.1.15,2013-10-04 14:25:00,
2013-10-04 06:35:00,15.6,13.2,29.82,ESE,111,1.0,1.0,90,0.00,,,0.00,Wunderground v.1.15,2013-10-04 14:35:00,
2013-10-04 06:45:00,15.6,13.2,29.82,ESE,111,0.0,1.0,90,0.00,,,0.00,Wunderground v.1.15,2013-10-04 14:45:00,
2013-10-04 06:55:00,15.6,13.2,29.82,ESE,111,0.0,0.0,90,0.00,,,0.00,Wunderground v.1.15,2013-10-04 14:55:00,
2013-10-04 07:05:00,15.1,12.4,29.83,ESE,111,0.0,0.0,89,0.00,,,0.00,Wunderground v.1.15,2013-10-04 15:05:00,
2013-10-04 07:15:00,15.4,13.0,29.83,ESE,111,1.0,2.0,90,0.00,,,0.00,Wunderground v.1.15,2013-10-04 15:15:00,
2013-10-04 07:25:00,15.7,13.3,29.83,ESE,111,0.0,0.0,90,0.00,,,0.00,Wunderground v.1.15,2013-10-04 15:25:00,
2013-10-04 07:35:00,15.4,13.0,29.83,ESE,111,0.0,1.0,90,0.00,,,0.00,Wunderground v.1.15,2013-10-04 15:35:00,
2013-10-04 07:45:00,14.8,12.1,29.84,ESE,111,1.0,2.0,89,0.00,,,0.00,Wunderground v.1.15,2013-10-04 15:45:00,
2013-10-04 07:55:00,14.9,12.2,29.84,ESE,111,1.0,2.0,89,0.00,,,0.00,Wunderground v.1.15,2013-10-04 15:55:00,
2013-10-04 08:00:00,15.4,13.0,29.84,ESE,111,1.0,1.0,90,0.00,,,0.00,Wunderground v.1.15,2013-10-04 16:00:00,
2013-10-04 08:05:00,15.2,12.8,29.84,ESE,111,0.0,1.0,90,0.00,,,0.00,Wunderground v.1.15,2013-10-04 16:05:00,
2013-10-04 08:15:00,15.1,12.4,29.84,ESE,111,0.0,0.0,89,0.00,,,0.00,Wunderground v.1.15,2013-10-04 16:15:00,
2013-10-04 08:20:00,14.8,12.1,29.84,ESE,111,0.0,0.0,89,0.00,,,0.00,Wunderground v.1.15,2013-10-04 16:20:00,
2013-10-04 08:30:00,14.8,12.4,29.84,ESE,111,0.0,0.0,90,0.00,,,0.00,Wunderground v.1.15,2013-10-04 16:30:00,
2013-10-04 08:35:00,14.8,12.4,29.84,ESE,111,0.0,0.0,90,0.00,,,0.00,Wunderground v.1.15,2013-10-04 16:35:00,
2013-10-04 08:40:00,14.8,12.4,29.84,ESE,111,0.0,0.0,90,0.00,,,0.00,Wunderground v.1.15,2013-10-04 16:40:00,
2013-10-04 08:50:00,14.6,12.2,29.84,ESE,109,2.0,2.0,90,0.00,,,0.00,Wunderground v.1.15,2013-10-04 16:50:00,
2013-10-04 08:55:00,14.8,12.4,29.84,ESE,108,1.0,2.0,90,0.00,,,0.00,Wunderground v.1.15,2013-10-04 16:55:00,
2013-10-04 09:05:00,14.8,12.4,29.84,ESE,108,0.0,0.0,90,0.00,,,0.00,Wunderground v.1.15,2013-10-04 17:05:00,
2013-10-04 09:15:00,14.9,12.5,29.84,ESE,104,1.0,2.0,90,0.00,,,0.00,Wunderground v.1.15,2013-10-04 17:15:00,
2013-10-04 09:25:00,14.8,12.1,29.84,ESE,104,0.0,1.0,89,0.00,,,0.00,Wunderground v.1.15,2013-10-04 17:25:00,
2013-10-04 09:30:00,14.4,11.8,29.84,ESE,104,0.0,0.0,89,0.00,,,0.00,Wunderground v.1.15,2013-10-04 17:30:00,
2013-10-04 10:00:00,15.4,12.5,29.84,ESE,104,0.0,0.0,88,0.00,,,0.00,Wunderground v.1.15,2013-10-04 18:00:00,
2013-10-04 10:10:00,16.2,13.3,29.84,ESE,104,0.0,1.0,88,0.00,,,0.00,Wunderground v.1.15,2013-10-04 18:10:00,
2013-10-04 10:20:00,17.2,14.3,29.83,ENE,70,1.0,2.0,88,0.00,,,0.00,Wunderground v.1.15,2013-10-04 18:20:00,
2013-10-04 10:25:00,17.5,14.6,29.83,ENE,68,1.0,2.0,88,0.00,,,0.00,Wunderground v.1.15,2013-10-04 18:25:00,
2013-10-04 10:30:00,18.0,15.0,29.83,ENE,68,0.0,0.0,88,0.00,,,0.00,Wunderground v.1.15,2013-10-04 18:30:00,
2013-10-04 10:40:00,18.1,14.9,29.83,ENE,68,0.0,0.0,87,0.00,,,0.00,Wunderground v.1.15,2013-10-04 18:40:00,
2013-10-04 10:45:00,18.3,15.1,29.83,ENE,68,1.0,2.0,87,0.00,,,0.00,Wunderground v.1.15,2013-10-04 18:45:00,
2013-10-04 10:55:00,19.7,17.0,29.83,ENE,68,0.0,1.0,89,0.00,,,0.00,Wunderground v.1.15,2013-10-04 18:55:00,
2013-10-04 11:00:00,21.0,18.3,29.83,ENE,68,0.0,1.0,89,0.00,,,0.00,Wunderground v.1.15,2013-10-04 19:00:00,
2013-10-04 11:10:00,21.3,17.8,29.83,ENE,68,1.0,1.0,86,0.00,,,0.00,Wunderground v.1.15,2013-10-04 19:10:00,
2013-10-04 11:20:00,21.9,18.6,29.83,ENE,68,1.0,1.0,87,0.00,,,0.00,Wunderground v.1.15,2013-10-04 19:20:00,
2013-10-04 11:25:00,21.9,18.6,29.83,ENE,68,1.0,1.0,87,0.00,,,0.00,Wunderground v.1.15,2013-10-04 19:25:00,
2013-10-04 11:35:00,23.9,20.6,29.83,ENE,68,0.0,0.0,87,0.00,,,0.00,Wunderground v.1.15,2013-10-04 19:35:00,
2013-10-04 11:45:00,25.0,21.7,29.83,ENE,63,1.0,2.0,87,0.00,,,0.00,Wunderground v.1.15,2013-10-04 19:45:00,
2013-10-04 11:55:00,26.0,22.4,29.83,ENE,61,1.0,1.0,86,0.00,,,0.00,Wunderground v.1.15,2013-10-04 19:55:00,
2013-10-04 12:00:00,26.4,22.8,29.83,ENE,61,1.0,1.0,86,0.00,,,0.00,Wunderground v.1.15,2013-10-04 20:00:00,
2013-10-04 12:10:00,27.5,23.6,29.83,ENE,61,1.0,2.0,85,0.00,,,0.00,Wunderground v.1.15,2013-10-04 20:10:00,
2013-10-04 12:20:00,28.4,23.9,29.83,ENE,60,3.0,3.0,83,0.00,,,0.00,Wunderground v.1.15,2013-10-04 20:20:00,
2013-10-04 12:25:00,29.0,24.8,29.83,ENE,60,2.0,3.0,84,0.00,,,0.00,Wunderground v.1.15,2013-10-04 20:25:00,
2013-10-04 12:35:00,29.7,25.5,29.83,ENE,61,0.0,1.0,84,0.00,,,0.00,Wunderground v.1.15,2013-10-04 20:35:00,
2013-10-04 12:40:00,31.0,25.9,29.83,ENE,61,0.0,0.0,81,0.00,,,0.00,Wunderground v.1.15,2013-10-04 20:40:00,
2013-10-04 12:50:00,32.5,27.0,29.83,ENE,61,0.0,0.0,80,0.00,,,0.00,Wunderground v.1.15,2013-10-04 20:50:00,
2013-10-04 13:00:00,32.5,27.0,29.83,ENE,61,0.0,0.0,80,0.00,,,0.00,Wunderground v.1.15,2013-10-04 21:00:00,
2013-10-04 13:05:00,-999.9,-99.9,29.83,North,32767,-999.0,0.0,255,-99.99,,,0.00,Wunderground v.1.15,2013-10-04 21:05:00,
2013-10-04 13:15:00,-999.9,-99.9,29.84,North,32767,-999.0,0.0,255,-99.99,,,0.00,Wunderground v.1.15,2013-10-04 21:15:00,
2013-10-04 13:25:00,-999.9,-99.9,29.84,North,32767,-999.0,0.0,255,-99.99,,,0.00,Wunderground v.1.15,2013-10-04 21:25:00,
2013-10-04 13:30:00,-999.9,-99.9,29.83,North,32767,-999.0,0.0,255,-99.99,,,0.00,Wunderground v.1.15,2013-10-04 21:30:00,
2013-10-04 13:40:00,38.5,29.2,29.83,ENE,61,0.0,0.0,69,0.00,,,0.00,Wunderground v.1.15,2013-10-04 21:40:00,
2013-10-04 13:45:00,37.9,29.0,29.83,ENE,61,0.0,0.0,70,0.00,,,0.00,Wunderground v.1.15,2013-10-04 21:45:00,
2013-10-04 13:50:00,37.3,28.4,29.83,ENE,61,0.0,0.0,70,0.00,,,0.00,Wunderground v.1.15,2013-10-04 21:50:00,
2013-10-04 14:00:00,36.9,28.0,29.83,ENE,60,0.0,0.0,70,0.00,,,0.00,Wunderground v.1.15,2013-10-04 22:00:00,
2013-10-04 14:10:00,36.3,28.5,29.83,ENE,60,0.0,0.0,73,0.00,,,0.00,Wunderground v.1.15,2013-10-04 22:10:00,
2013-10-04 14:20:00,36.0,28.2,29.82,ENE,61,0.0,0.0,73,0.00,,,0.00,Wunderground v.1.15,2013-10-04 22:20:00,
2013-10-04 14:30:00,35.6,28.1,29.82,ENE,60,0.0,0.0,74,0.00,,,0.00,Wunderground v.1.15,2013-10-04 22:30:00,
2013-10-04 14:40:00,35.6,28.1,29.82,ENE,60,0.0,0.0,74,0.00,,,0.00,Wunderground v.1.15,2013-10-04 22:40:00,
2013-10-04 14:45:00,-999.9,-99.9,29.81,North,32767,-999.0,0.0,255,-99.99,,,0.00,Wunderground v.1.15,2013-10-04 22:45:00,
2013-10-04 14:50:00,-999.9,-99.9,29.81,North,32767,-999.0,0.0,255,-99.99,,,0.00,Wunderground v.1.15,2013-10-04 22:50:00,
2013-10-04 15:00:00,-999.9,-99.9,29.80,North,32767,-999.0,0.0,255,-99.99,,,0.00,Wunderground v.1.15,2013-10-04 23:00:00,
2013-10-04 15:10:00,-999.9,-99.9,29.80,North,32767,-999.0,0.0,255,-99.99,,,0.00,Wunderground v.1.15,2013-10-04 23:10:00,
2013-10-04 15:20:00,37.9,28.6,29.80,SSE,164,3.0,5.0,69,0.00,,,0.00,Wunderground v.1.15,2013-10-04 23:20:00,
2013-10-04 15:30:00,36.2,28.4,29.80,SSE,164,3.0,3.0,73,0.00,,,0.00,Wunderground v.1.15,2013-10-04 23:30:00,
2013-10-04 15:40:00,37.6,28.3,29.80,SSE,164,1.0,1.0,69,0.00,,,0.00,Wunderground v.1.15,2013-10-04 23:40:00,
2013-10-04 15:50:00,-999.9,-99.9,29.79,North,32767,-999.0,0.0,255,-99.99,,,0.00,Wunderground v.1.15,2013-10-04 23:50:00,
2013-10-04 15:55:00,-999.9,-99.9,29.79,North,32767,-999.0,0.0,255,-99.99,,,0.00,Wunderground v.1.15,2013-10-04 23:55:00,
2013-10-04 16:05:00,38.3,-99.9,29.78,WSW,251,2.0,2.0,255,0.00,,,0.00,Wunderground v.1.15,2013-10-05 00:05:00,
2013-10-04 16:15:00,36.5,28.0,29.77,WSW,248,2.0,2.0,71,0.00,,,0.00,Wunderground v.1.15,2013-10-05 00:15:00,
2013-10-04 16:20:00,36.3,27.8,29.77,WSW,245,2.0,2.0,71,0.00,,,0.00,Wunderground v.1.15,2013-10-05 00:20:00,
2013-10-04 16:30:00,36.0,27.8,29.77,SW,231,3.0,3.0,72,0.00,,,0.00,Wunderground v.1.15,2013-10-05 00:30:00,
2013-10-04 16:40:00,36.0,27.8,29.77,SW,231,2.0,2.0,72,0.00,,,0.00,Wunderground v.1.15,2013-10-05 00:40:00,
2013-10-04 16:45:00,35.8,28.0,29.77,SW,231,2.0,2.0,73,0.00,,,0.00,Wunderground v.1.15,2013-10-05 00:45:00,
2013-10-04 16:50:00,35.6,28.1,29.77,SW,231,1.0,2.0,74,0.00,,,0.00,Wunderground v.1.15,2013-10-05 00:50:00,
2013-10-04 17:00:00,35.5,28.0,29.76,SW,227,2.0,2.0,74,0.00,,,0.00,Wunderground v.1.15,2013-10-05 01:00:00,
2013-10-04 17:10:00,35.3,27.8,29.76,SW,227,0.0,0.0,74,0.00,,,0.00,Wunderground v.1.15,2013-10-05 01:10:00,
2013-10-04 17:15:00,35.3,27.8,29.75,SW,227,0.0,1.0,74,0.00,,,0.00,Wunderground v.1.15,2013-10-05 01:15:00,
2013-10-04 17:25:00,35.5,27.7,29.75,SW,227,0.0,0.0,73,0.00,,,0.00,Wunderground v.1.15,2013-10-05 01:25:00,
2013-10-04 17:30:00,35.6,27.8,29.75,South,187,5.0,5.0,73,0.00,,,0.00,Wunderground v.1.15,2013-10-05 01:30:00,
2013-10-04 17:35:00,35.5,28.0,29.75,South,186,4.0,5.0,74,0.00,,,0.00,Wunderground v.1.15,2013-10-05 01:35:00,
2013-10-04 17:45:00,35.2,27.7,29.75,South,181,2.0,3.0,74,0.00,,,0.00,Wunderground v.1.15,2013-10-05 01:45:00,
2013-10-04 17:55:00,35.8,28.0,29.75,South,186,4.0,5.0,73,0.00,,,0.00,Wunderground v.1.15,2013-10-05 01:55:00,
2013-10-04 18:05:00,35.9,28.4,29.74,South,186,2.0,3.0,74,0.00,,,0.00,Wunderground v.1.15,2013-10-05 02:05:00,
2013-10-04 18:15:00,37.8,29.2,29.74,South,187,1.0,3.0,71,0.00,,,0.00,Wunderground v.1.15,2013-10-05 02:15:00,
2013-10-04 18:25:00,37.8,28.5,29.74,SW,227,4.0,7.0,69,0.00,,,0.00,Wunderground v.1.15,2013-10-05 02:25:00,
2013-10-04 18:35:00,37.9,28.6,29.74,SW,228,2.0,4.0,69,0.00,,,0.00,Wunderground v.1.15,2013-10-05 02:35:00,
2013-10-04 18:45:00,37.6,28.3,29.73,SW,221,2.0,2.0,69,0.00,,,0.00,Wunderground v.1.15,2013-10-05 02:45:00,
2013-10-04 18:55:00,37.3,29.1,29.73,SW,225,2.0,4.0,72,0.00,,,0.00,Wunderground v.1.15,2013-10-05 02:55:00,
2013-10-04 19:11:00,36.8,29.0,29.73,SW,220,4.0,4.0,73,0.00,,,0.00,Wunderground v.1.15,2013-10-05 03:11:00,
2013-10-04 19:21:00,-999.9,-99.9,29.72,North,32767,-999.0,4.0,255,-99.99,,,0.00,Wunderground v.1.15,2013-10-05 03:21:00,
2013-10-04 19:30:00,34.6,28.1,29.72,SSW,197,2.0,2.0,77,0.00,,,0.00,Wunderground v.1.15,2013-10-05 03:30:00,
2013-10-04 19:35:00,34.1,28.0,29.72,SSW,197,1.0,1.0,78,0.00,,,0.00,Wunderground v.1.15,2013-10-05 03:35:00,
2013-10-04 19:45:00,34.0,27.5,29.71,SSW,197,0.0,0.0,77,0.00,,,0.00,Wunderground v.1.15,2013-10-05 03:45:00,
2013-10-04 19:50:00,31.6,26.1,29.71,SSW,197,0.0,0.0,80,0.00,,,0.00,Wunderground v.1.15,2013-10-05 03:50:00,
2013-10-04 20:00:00,30.9,26.3,29.70,SSW,197,0.0,0.0,83,0.00,,,0.00,Wunderground v.1.15,2013-10-05 04:00:00,
2013-10-04 20:05:00,30.7,26.1,29.70,SSW,197,0.0,0.0,83,0.00,,,0.00,Wunderground v.1.15,2013-10-05 04:05:00,
2013-10-04 20:10:00,30.4,26.1,29.70,SSW,197,0.0,0.0,84,0.00,,,0.00,Wunderground v.1.15,2013-10-05 04:10:00,
2013-10-04 20:15:00,30.0,26.0,29.70,SSW,197,0.0,0.0,85,0.00,,,0.00,Wunderground v.1.15,2013-10-05 04:15:00,
2013-10-04 20:25:00,30.1,26.4,29.70,SSW,197,0.0,0.0,86,0.00,,,0.00,Wunderground v.1.15,2013-10-05 04:25:00,
2013-10-04 20:30:00,30.1,26.4,29.70,SSW,197,0.0,0.0,86,0.00,,,0.00,Wunderground v.1.15,2013-10-05 04:30:00,
2013-10-04 20:35:00,30.1,26.4,29.70,SSW,197,0.0,0.0,86,0.00,,,0.00,Wunderground v.1.15,2013-10-05 04:35:00,
2013-10-04 20:40:00,30.6,27.2,29.70,South,177,0.0,0.0,87,0.00,,,0.00,Wunderground v.1.15,2013-10-05 04:40:00,
2013-10-04 20:45:00,30.9,27.2,29.70,South,177,0.0,0.0,86,0.00,,,0.00,Wunderground v.1.15,2013-10-05 04:45:00,
2013-10-04 20:50:00,31.0,27.3,29.70,South,177,0.0,0.0,86,0.00,,,0.00,Wunderground v.1.15,2013-10-05 04:50:00,
2013-10-04 21:00:00,31.0,27.3,29.69,South,177,0.0,0.0,86,0.00,,,0.00,Wunderground v.1.15,2013-10-05 05:00:00,
2013-10-04 21:05:00,-999.9,-99.9,29.69,North,32767,-999.0,0.0,255,-99.99,,,0.00,Wunderground v.1.15,2013-10-05 05:05:00,
2013-10-04 21:11:00,-999.9,-99.9,29.69,North,32767,-999.0,0.0,255,-99.99,,,0.00,Wunderground v.1.15,2013-10-05 05:11:00,
2013-10-04 21:20:00,31.9,29.6,29.68,SSE,164,4.0,6.0,91,0.00,,,0.00,Wunderground v.1.15,2013-10-05 05:20:00,
2013-10-04 21:31:00,31.8,30.5,29.67,South,169,4.0,4.0,95,0.00,,,0.00,Wunderground v.1.15,2013-10-05 05:31:00,
2013-10-04 21:40:00,31.8,30.5,29.67,South,172,4.0,4.0,95,0.00,,,0.00,Wunderground v.1.15,2013-10-05 05:40:00,
2013-10-04 21:50:00,-999.9,-99.9,29.66,North,32767,-999.0,0.0,255,-99.99,,,0.00,Wunderground v.1.15,2013-10-05 05:50:00,
2013-10-04 21:55:00,-999.9,-99.9,29.66,North,32767,-999.0,0.0,255,-99.99,,,0.00,Wunderground v.1.15,2013-10-05 05:55:00,
2013-10-04 22:05:00,31.2,30.4,29.66,SSE,160,4.0,5.0,97,0.00,,,0.00,Wunderground v.1.15,2013-10-05 06:05:00,
2013-10-04 22:10:00,31.2,30.4,29.66,South,173,4.0,4.0,97,0.00,,,0.00,Wunderground v.1.15,2013-10-05 06:10:00,
2013-10-04 22:15:00,31.2,30.4,29.66,South,169,4.0,5.0,97,0.00,,,0.00,Wunderground v.1.15,2013-10-05 06:15:00,
2013-10-04 22:21:00,31.2,30.4,29.66,South,172,5.0,7.0,97,0.00,,,0.00,Wunderground v.1.15,2013-10-05 06:21:00,
2013-10-04 22:30:00,31.3,30.5,29.65,South,174,5.0,5.0,97,0.00,,,0.00,Wunderground v.1.15,2013-10-05 06:30:00,
2013-10-04 22:35:00,-999.9,-99.9,29.65,North,32767,-999.0,5.0,255,-99.99,,,0.00,Wunderground v.1.15,2013-10-05 06:35:00,
2013-10-04 22:45:00,-999.9,-99.9,29.65,North,32767,-999.0,0.0,255,-99.99,,,0.00,Wunderground v.1.15,2013-10-05 06:45:00,
2013-10-04 22:55:00,31.2,31.2,29.65,South,174,2.0,5.0,100,0.00,,,0.00,Wunderground v.1.15,2013-10-05 06:55:00,
2013-10-04 23:05:00,31.2,31.2,29.65,South,174,4.0,5.0,100,0.00,,,0.00,Wunderground v.1.15,2013-10-05 07:05:00,
2013-10-04 23:15:00,31.3,31.3,29.64,South,174,5.0,5.0,100,0.00,,,0.00,Wunderground v.1.15,2013-10-05 07:15:00,
2013-10-04 23:25:00,31.3,31.3,29.64,South,174,3.0,4.0,100,0.00,,,0.00,Wunderground v.1.15,2013-10-05 07:25:00,
2013-10-04 23:35:00,31.2,31.2,29.63,South,174,3.0,4.0,100,0.00,,,0.00,Wunderground v.1.15,2013-10-05 07:35:00,
2013-10-04 23:40:00,30.9,30.9,29.63,South,174,0.0,0.0,100,0.00,,,0.00,Wunderground v.1.15,2013-10-05 07:40:00,
2013-10-04 23:50:00,30.3,30.3,29.62,South,174,1.0,1.0,100,0.00,,,0.00,Wunderground v.1.15,2013-10-05 07:50:00,
2013-10-04 23:55:00,30.1,30.1,29.62,South,174,0.0,1.0,100,0.00,,,0.00,Wunderground v.1.15,2013-10-05 07:55:00,